sim
Sign-in with your pilot id or email,
or register
Callsign
Passwort

Schedule Details

Flight Number: DLH677 (1)
Departure: Marrakesh Menara Airport (GMMX) at 12:30
Arrival: Munich Airport (EDDM) at 16:15
Route: Lufthansa Passenger Schedule. Enter filed route here before submitting Pirep.

Weather Information
Getting current METAR information for GMMX 221700Z 35005KT 320V020 9999 SCT100 SCT200 34/08 Q1015 NOSIG
Getting current METAR information for EDDM 221650Z 07002KT 9999 FEW040CB 20/15 Q1010 NOSIG

Schedule Frequency

Route Map